Time;durP1;ratioP1;P1;durP2;ratioP2;P2;SDS_P1;SDS_P2;PMS_P1;PMS_P2;Temp;Humidity;BMP_temperature;BMP_pressure;BME280_temperature;BME280_humidity;BME280_pressure;Samples;Min_cycle;Max_cycle;Signal;HPM_P1;HPM_P2
2023/02/03 00:00:27;;;;;;;23.27;10.43;;;;;;;-145.18;100.00;114074.00;5018013;28;20847;-69
2023/02/03 00:02:53;;;;;;;16.47;8.27;;;;;;;-145.18;100.00;114074.00;5024458;28;20038;-70
2023/02/03 00:05:19;;;;;;;19.83;9.50;;;;;;;8.39;100.00;149571.13;5021266;28;20357;-71
2023/02/03 00:07:45;;;;;;;26.73;12.17;;;;;;;8.39;100.00;149571.13;5019228;28;20037;-70
2023/02/03 00:10:10;;;;;;;17.47;7.83;;;;;;;-145.18;100.00;114074.00;5030259;28;20108;-70
2023/02/03 00:12:36;;;;;;;17.33;8.30;;;;;;;-145.18;100.00;60484.78;5013617;28;20030;-69
2023/02/03 00:15:01;;;;;;;17.00;8.87;;;;;;;-145.18;100.00;60484.78;5025010;28;20060;-70
2023/02/03 00:17:27;;;;;;;16.90;7.73;;;;;;;8.48;100.00;149593.09;5017321;28;20456;-66
2023/02/03 00:19:52;;;;;;;18.27;8.63;;;;;;;-145.18;nan;60484.78;5030919;28;20033;-68
2023/02/03 00:22:17;;;;;;;18.77;9.37;;;;;;;8.48;100.00;149593.09;5022544;28;20026;-69
2023/02/03 00:24:43;;;;;;;14.13;6.87;;;;;;;8.48;100.00;149593.09;5019250;28;20053;-68
2023/02/03 00:27:08;;;;;;;14.13;7.00;;;;;;;8.48;100.00;149593.09;5029488;28;20503;-68
2023/02/03 00:29:33;;;;;;;13.07;6.30;;;;;;;8.48;100.00;149593.09;5018561;28;20112;-68
2023/02/03 00:31:59;;;;;;;20.87;9.00;;;;;;;8.50;100.00;149598.28;5017743;28;20026;-68
2023/02/03 00:34:29;;;;;;;17.37;7.60;;;;;;;8.50;100.00;149598.28;5023984;28;20033;-67
2023/02/03 00:36:55;;;;;;;19.30;8.93;;;;;;;8.50;100.00;149598.28;5024735;28;20024;-68
2023/02/03 00:39:20;;;;;;;16.17;7.73;;;;;;;-145.18;100.00;114074.00;5023161;28;20029;-68
2023/02/03 00:41:46;;;;;;;18.00;7.40;;;;;;;8.50;100.00;149598.28;5022038;28;20064;-68
2023/02/03 00:44:11;;;;;;;11.57;5.77;;;;;;;8.56;100.00;149613.75;5028364;28;20029;-67
2023/02/03 00:46:37;;;;;;;13.73;7.73;;;;;;;-145.18;100.00;149613.75;5030424;28;20111;-68
2023/02/03 00:49:03;;;;;;;15.20;7.83;;;;;;;-145.18;100.00;60484.78;5028684;28;20362;-69
2023/02/03 00:51:29;;;;;;;18.30;7.60;;;;;;;8.56;100.00;149613.75;5028168;28;20017;-68
2023/02/03 00:53:54;;;;;;;13.53;6.30;;;;;;;-145.18;nan;60484.78;5020539;28;20084;-68
2023/02/03 00:56:19;;;;;;;14.00;7.33;;;;;;;-145.18;100.00;60484.78;5027938;28;20109;-68
2023/02/03 00:58:45;;;;;;;15.43;7.23;;;;;;;8.56;100.00;149613.75;5033489;28;20026;-68
2023/02/03 01:01:10;;;;;;;18.20;7.30;;;;;;;-145.18;100.00;60484.78;5025260;28;20095;-68
2023/02/03 01:03:36;;;;;;;20.17;8.13;;;;;;;-145.18;100.00;60484.78;5025099;28;20544;-68
2023/02/03 01:06:13;;;;;;;16.87;8.20;;;;;;;-145.18;nan;60484.78;5032352;28;20036;-68
2023/02/03 01:08:38;;;;;;;15.97;5.40;;;;;;;-145.18;100.00;60484.78;5027020;28;20109;-68
2023/02/03 01:11:12;;;;;;;18.67;8.17;;;;;;;;;;5022381;28;20025;-69
2023/02/03 01:13:37;;;;;;;17.73;8.73;;;;;;;-145.18;100.00;60484.78;5034338;28;20029;-70
2023/02/03 01:16:06;;;;;;;18.93;7.10;;;;;;;-145.18;100.00;60484.78;5029146;28;20500;-67
2023/02/03 01:18:32;;;;;;;18.50;7.27;;;;;;;-145.18;100.00;60484.78;5030885;28;20029;-68
2023/02/03 01:20:57;;;;;;;18.40;6.30;;;;;;;8.56;100.00;149613.75;5030743;28;20087;-68
2023/02/03 01:23:22;;;;;;;20.43;7.33;;;;;;;-145.18;100.00;60484.78;5030857;28;20073;-68
2023/02/03 01:25:48;;;;;;;16.80;7.10;;;;;;;-145.18;100.00;114074.00;5034937;28;20021;-67
2023/02/03 01:28:13;;;;;;;13.03;6.83;;;;;;;-145.18;100.00;60484.78;5034530;28;20068;-67
2023/02/03 01:30:39;;;;;;;16.43;6.93;;;;;;;-145.18;100.00;60484.78;5032269;28;20044;-68
2023/02/03 01:33:05;;;;;;;15.47;7.43;;;;;;;-145.18;100.00;60484.78;5029855;28;20036;-68
2023/02/03 01:35:30;;;;;;;16.57;6.90;;;;;;;-145.18;100.00;114074.00;5022303;28;20034;-68
2023/02/03 01:37:55;;;;;;;16.17;6.73;;;;;;;-145.18;100.00;60484.78;5027725;28;20461;-67
2023/02/03 01:40:21;;;;;;;13.00;6.50;;;;;;;-145.18;100.00;60484.78;5023849;28;20108;-67
2023/02/03 01:42:46;;;;;;;13.43;5.47;;;;;;;8.62;100.00;149629.31;5029009;28;20484;-67
2023/02/03 01:45:12;;;;;;;15.60;5.70;;;;;;;-145.18;100.00;60484.78;5033565;28;20026;-68
2023/02/03 01:47:47;;;;;;;11.90;5.87;;;;;;;-145.18;100.00;60484.78;5032658;28;20040;-68
2023/02/03 01:50:20;;;;;;;15.60;6.40;;;;;;;-145.18;100.00;60484.78;5026124;28;20034;-67
2023/02/03 01:52:50;;;;;;;10.77;4.30;;;;;;;-145.18;100.00;60484.78;5025900;28;20061;-67
2023/02/03 01:55:19;;;;;;;13.13;4.63;;;;;;;-145.18;100.00;60484.78;5021924;28;20040;-68
2023/02/03 01:58:00;;;;;;;12.50;5.33;;;;;;;-145.18;100.00;60484.78;5028984;28;20033;-68
2023/02/03 02:00:26;;;;;;;16.17;5.67;;;;;;;-145.18;100.00;60484.78;5023927;28;21729;-70
2023/02/03 02:02:53;;;;;;;13.97;5.60;;;;;;;-145.18;100.00;60484.78;5030119;28;20283;-70
2023/02/03 02:05:31;;;;;;;11.40;4.73;;;;;;;;;;5105174;22;20049;-70
2023/02/03 02:07:59;;;;;;;15.27;6.23;;;;;;;-145.18;100.00;114074.00;5057337;28;20042;-71
2023/02/03 02:10:26;;;;;;;10.33;4.47;;;;;;;-145.18;100.00;60484.78;5070438;28;20471;-69
2023/02/03 02:12:55;;;;;;;7.87;4.00;;;;;;;-145.18;100.00;60484.78;5064009;28;20029;-71
2023/02/03 02:15:27;;;;;;;14.97;4.27;;;;;;;-145.18;100.00;60484.78;5058635;28;20024;-68
2023/02/03 02:18:07;;;;;;;11.13;4.15;;;;;;;-145.18;100.00;60484.78;5064754;28;20110;-69
2023/02/03 02:21:07;;;;;;;11.10;4.73;;;;;;;-145.18;100.00;114074.00;5071427;28;20034;-68
2023/02/03 02:24:10;;;;;;;11.33;4.50;;;;;;;-145.18;100.00;60484.78;5063359;28;20037;-71
2023/02/03 02:26:54;;;;;;;11.57;4.63;;;;;;;-145.18;100.00;114074.00;5068286;28;20028;-69
2023/02/03 02:29:30;;;;;;;11.37;5.90;;;;;;;;;;5050079;28;20037;-71
2023/02/03 02:32:20;;;;;;;11.67;5.80;;;;;;;-145.18;100.00;60484.78;5067773;28;20032;-71
2023/02/03 02:35:10;;;;;;;10.47;4.60;;;;;;;-145.18;100.00;114074.00;5048454;28;20476;-71
2023/02/03 02:37:57;;;;;;;10.60;4.63;;;;;;;-145.18;100.00;114074.00;5070549;28;20024;-72
2023/02/03 02:40:27;;;;;;;14.37;6.33;;;;;;;-145.18;100.00;114074.00;5062603;28;20119;-71
2023/02/03 02:42:55;;;;;;;18.00;6.40;;;;;;;;;;5064482;28;20032;-70
2023/02/03 02:45:29;;;;;;;12.77;4.97;;;;;;;-145.18;100.00;114074.00;5054172;28;20035;-68
2023/02/03 02:48:06;;;;;;;16.17;7.00;;;;;;;8.62;100.00;149629.31;5068954;28;20029;-70
2023/02/03 02:50:37;;;;;;;13.70;6.33;;;;;;;-145.18;100.00;60484.78;5068383;28;20081;-70
2023/02/03 02:53:03;;;;;;;8.50;3.20;;;;;;;;;;5063550;28;20407;-68
2023/02/03 02:55:32;;;;;;;9.17;3.80;;;;;;;-145.18;100.00;114074.00;5069230;28;20040;-69
2023/02/03 02:58:04;;;;;;;11.83;4.77;;;;;;;-145.18;100.00;60484.78;5070659;28;20029;-66
2023/02/03 03:00:30;;;;;;;12.53;6.00;;;;;;;;;;5069130;28;20031;-71
2023/02/03 03:02:56;;;;;;;10.70;4.60;;;;;;;-145.18;100.00;114074.00;5055532;28;20758;-68
2023/02/03 03:05:24;;;;;;;9.00;4.20;;;;;;;-145.18;nan;60484.78;5049860;28;20037;-71
2023/02/03 03:08:01;;;;;;;14.43;3.87;;;;;;;-145.18;100.00;114074.00;5046545;28;20056;-68
2023/02/03 03:10:30;;;;;;;9.20;3.77;;;;;;;-145.18;100.00;60484.78;5049431;28;20560;-69
2023/02/03 03:13:05;;;;;;;13.50;5.07;;;;;;;-145.18;100.00;60484.78;5051841;28;20021;-69
2023/02/03 03:15:34;;;;;;;9.57;4.33;;;;;;;-145.18;100.00;60484.78;5048982;28;20384;-70
2023/02/03 03:18:08;;;;;;;10.50;4.23;;;;;;;-145.18;100.00;60484.78;5046798;28;20741;-68
2023/02/03 03:20:36;;;;;;;13.83;5.30;;;;;;;8.62;100.00;149629.31;5041374;28;20033;-70
2023/02/03 03:23:14;;;;;;;12.40;3.87;;;;;;;-145.18;100.00;114074.00;5051167;28;20081;-68
2023/02/03 03:25:44;;;;;;;13.40;4.67;;;;;;;;;;5046582;28;20025;-69
2023/02/03 03:28:22;;;;;;;17.07;4.50;;;;;;;-145.18;nan;60484.78;5049793;28;20446;-71
2023/02/03 03:30:48;;;;;;;11.37;3.80;;;;;;;-145.18;0.00;60484.78;5049012;28;20031;-68
2023/02/03 03:33:14;;;;;;;10.40;4.47;;;;;;;-145.18;100.00;114074.00;5051303;28;20228;-70
2023/02/03 03:35:39;;;;;;;10.90;3.93;;;;;;;;;;5047586;28;20241;-70
2023/02/03 03:38:16;;;;;;;10.83;3.73;;;;;;;-145.18;nan;60484.78;5049215;28;20108;-67
2023/02/03 03:40:48;;;;;;;8.73;3.93;;;;;;;-145.18;100.00;60484.78;5048394;28;20033;-69
2023/02/03 03:43:19;;;;;;;10.17;4.07;;;;;;;-145.18;100.00;60484.78;5046336;28;20017;-67
2023/02/03 03:45:54;;;;;;;12.60;4.37;;;;;;;-145.18;100.00;114074.00;5049459;28;20021;-70
2023/02/03 03:48:22;;;;;;;9.77;2.80;;;;;;;;;;5049320;28;20116;-69
2023/02/03 03:51:14;;;;;;;10.13;4.07;;;;;;;-145.18;100.00;60484.78;5050248;28;20036;-69
2023/02/03 03:53:43;;;;;;;13.93;4.93;;;;;;;8.62;100.00;149629.31;5051049;28;20029;-72
2023/02/03 03:56:12;;;;;;;11.47;4.43;;;;;;;;;;5047633;28;20475;-72
2023/02/03 03:58:43;;;;;;;13.27;4.73;;;;;;;8.62;100.00;149629.31;5047407;28;20025;-71
2023/02/03 04:01:10;;;;;;;12.23;4.68;;;;;;;-145.18;100.00;114074.00;5048957;28;20443;-73
2023/02/03 04:03:44;;;;;;;10.23;3.43;;;;;;;-145.18;100.00;114074.00;5046904;28;20144;-72
2023/02/03 04:06:10;;;;;;;10.87;3.73;;;;;;;-145.18;100.00;114074.00;5048709;28;20063;-71
2023/02/03 04:08:36;;;;;;;12.17;4.13;;;;;;;-145.18;100.00;60484.78;5047563;28;20021;-70
2023/02/03 04:11:01;;;;;;;13.40;4.00;;;;;;;-145.18;nan;60484.78;5049562;28;20039;-71
2023/02/03 04:13:26;;;;;;;8.87;3.93;;;;;;;-145.18;0.00;60484.78;5049643;28;20039;-70
2023/02/03 04:15:52;;;;;;;11.60;3.60;;;;;;;-145.18;100.00;60484.78;5048217;28;20426;-71
2023/02/03 04:18:17;;;;;;;11.27;2.83;;;;;;;-145.18;100.00;60484.78;5049792;28;20060;-71
2023/02/03 04:20:43;;;;;;;8.60;3.00;;;;;;;-145.18;100.00;60484.78;5048560;28;20376;-71
2023/02/03 04:23:09;;;;;;;9.60;3.30;;;;;;;-145.18;nan;60484.78;5047961;28;20059;-72
2023/02/03 04:25:35;;;;;;;6.93;2.30;;;;;;;-145.18;100.00;60484.78;5048273;28;20040;-70
2023/02/03 04:28:00;;;;;;;7.77;2.60;;;;;;;-145.18;100.00;60484.78;5042854;28;20082;-72
2023/02/03 04:30:26;;;;;;;9.60;3.17;;;;;;;-145.18;100.00;60484.78;5048052;28;20036;-71
2023/02/03 04:32:52;;;;;;;9.50;2.97;;;;;;;-145.18;100.00;60484.78;5049084;28;20028;-71
2023/02/03 04:35:18;;;;;;;11.57;2.17;;;;;;;-145.18;100.00;114074.00;5046037;28;20021;-72
2023/02/03 04:37:43;;;;;;;10.90;3.73;;;;;;;-145.18;100.00;114074.00;5031150;28;20040;-72
2023/02/03 04:40:09;;;;;;;9.23;2.97;;;;;;;-145.18;100.00;114074.00;5048585;28;20017;-72
2023/02/03 04:42:37;;;;;;;9.20;3.10;;;;;;;-145.18;100.00;114074.00;5050236;28;20059;-71
2023/02/03 04:45:03;;;;;;;10.97;2.53;;;;;;;-145.18;100.00;114074.00;5046686;28;20384;-71
2023/02/03 04:47:29;;;;;;;10.33;2.60;;;;;;;-145.18;100.00;60484.78;5049126;28;20033;-70
2023/02/03 04:49:54;;;;;;;7.33;2.63;;;;;;;-145.18;100.00;114074.00;5048949;28;20064;-70
2023/02/03 04:52:20;;;;;;;6.30;2.50;;;;;;;8.62;100.00;149629.31;5050360;28;20041;-70
2023/02/03 04:54:45;;;;;;;9.03;2.60;;;;;;;8.62;100.00;149629.31;5045835;28;20105;-70
2023/02/03 04:57:10;;;;;;;10.90;3.33;;;;;;;8.62;100.00;149629.31;5047122;28;20475;-72
2023/02/03 04:59:36;;;;;;;10.27;2.83;;;;;;;8.62;100.00;149629.31;5048143;28;20032;-72
2023/02/03 05:02:03;;;;;;;4.97;2.13;;;;;;;8.62;100.00;149629.31;5047534;28;20396;-72
2023/02/03 05:04:29;;;;;;;9.27;3.07;;;;;;;8.62;100.00;149629.31;5046222;28;20450;-69
2023/02/03 05:06:55;;;;;;;8.20;2.90;;;;;;;8.62;100.00;149629.31;5050394;28;20140;-72
2023/02/03 05:09:20;;;;;;;9.37;2.97;;;;;;;8.62;100.00;149629.31;5047501;28;20040;-70
2023/02/03 05:11:46;;;;;;;11.47;3.20;;;;;;;-145.18;100.00;114074.00;5049089;28;20039;-71
2023/02/03 05:14:11;;;;;;;11.40;3.40;;;;;;;-145.18;100.00;114074.00;5050683;28;20490;-71
2023/02/03 05:16:37;;;;;;;6.23;2.33;;;;;;;8.62;100.00;149629.31;5046888;28;20108;-71
2023/02/03 05:19:02;;;;;;;4.70;2.03;;;;;;;-145.18;100.00;60484.78;5049303;28;20385;-71
2023/02/03 05:21:27;;;;;;;5.03;2.33;;;;;;;8.62;100.00;149629.31;5049331;28;20025;-70
2023/02/03 05:23:53;;;;;;;7.43;2.20;;;;;;;8.62;100.00;149629.31;5050518;28;20029;-70
2023/02/03 05:26:18;;;;;;;7.00;2.47;;;;;;;-145.18;100.00;114074.00;5047687;28;20461;-72
2023/02/03 05:28:44;;;;;;;8.23;2.63;;;;;;;-145.18;100.00;114074.00;5048092;28;20032;-71
2023/02/03 05:31:09;;;;;;;6.20;2.60;;;;;;;;;;5048192;28;20063;-72
2023/02/03 05:33:34;;;;;;;7.23;2.30;;;;;;;;;;5044457;28;20116;-71
2023/02/03 05:35:59;;;;;;;6.23;2.30;;;;;;;;;;5048080;28;20029;-72
2023/02/03 05:38:25;;;;;;;7.00;2.30;;;;;;;-145.18;100.00;114074.00;5048426;28;20481;-72
2023/02/03 05:43:35;;;;;;;10.60;2.77;;;;;;;8.62;100.00;149629.31;5054350;28;20082;-70
2023/02/03 05:46:05;;;;;;;9.17;2.73;;;;;;;-145.18;100.00;114074.00;5047423;28;20029;-70
2023/02/03 05:48:31;;;;;;;6.33;2.67;;;;;;;8.62;100.00;149629.31;5049766;28;20036;-71
2023/02/03 05:50:57;;;;;;;8.37;3.00;;;;;;;8.62;100.00;149629.31;5052820;28;20028;-70
2023/02/03 05:53:22;;;;;;;7.47;2.93;;;;;;;-145.18;100.00;114074.00;5052576;28;20064;-71
2023/02/03 05:55:48;;;;;;;12.73;2.73;;;;;;;8.62;100.00;149629.31;5051137;28;20445;-71
2023/02/03 05:58:13;;;;;;;6.20;2.73;;;;;;;8.62;100.00;149629.31;5051414;28;20028;-71
2023/02/03 06:00:39;;;;;;;7.30;2.37;;;;;;;-145.18;100.00;60484.78;5051130;28;20017;-71
2023/02/03 06:03:04;;;;;;;7.37;2.60;;;;;;;8.62;100.00;149629.31;5052525;28;20020;-71
2023/02/03 06:05:32;;;;;;;7.70;3.40;;;;;;;8.62;100.00;149629.31;5049932;28;20025;-71
2023/02/03 06:07:58;;;;;;;7.13;2.50;;;;;;;8.94;100.00;149709.47;5051346;28;20028;-71
2023/02/03 06:10:24;;;;;;;8.07;2.60;;;;;;;8.94;100.00;149709.47;5047963;28;20079;-70
2023/02/03 06:12:49;;;;;;;9.17;3.83;;;;;;;8.94;100.00;149709.47;5038879;28;20017;-73
2023/02/03 06:15:18;;;;;;;9.10;3.10;;;;;;;8.94;100.00;149709.47;5039950;28;20392;-72
2023/02/03 06:17:45;;;;;;;11.07;3.93;;;;;;;8.94;100.00;149709.47;5046300;28;20376;-74
2023/02/03 06:20:12;;;;;;;9.03;3.10;;;;;;;8.94;100.00;149709.47;5041982;28;20056;-71
2023/02/03 06:22:38;;;;;;;8.17;2.70;;;;;;;8.94;100.00;149709.47;5053910;28;20107;-69
2023/02/03 06:25:04;;;;;;;12.10;3.33;;;;;;;8.94;100.00;149709.47;5052673;28;20021;-68
2023/02/03 06:27:29;;;;;;;6.87;3.10;;;;;;;8.94;100.00;149709.47;5048954;28;20026;-69
2023/02/03 06:29:55;;;;;;;8.47;2.87;;;;;;;8.94;100.00;149709.47;5051966;28;20472;-71
2023/02/03 06:32:20;;;;;;;8.30;2.60;;;;;;;8.94;100.00;149709.47;5050204;28;20503;-71
2023/02/03 06:34:48;;;;;;;7.00;3.03;;;;;;;8.94;100.00;149709.47;5049563;28;20028;-73
2023/02/03 06:37:14;;;;;;;7.87;2.53;;;;;;;8.94;100.00;149709.47;5048769;28;20029;-71
2023/02/03 06:39:39;;;;;;;6.93;2.50;;;;;;;8.94;100.00;149709.47;5053331;28;20454;-70
2023/02/03 06:42:05;;;;;;;8.23;3.33;;;;;;;8.94;100.00;149709.47;5049899;28;20083;-70
2023/02/03 06:44:30;;;;;;;10.33;3.40;;;;;;;8.94;100.00;149709.47;5048290;28;20571;-71
2023/02/03 06:46:57;;;;;;;9.87;3.07;;;;;;;8.94;100.00;149709.47;5052863;28;20033;-72
2023/02/03 06:49:23;;;;;;;11.07;3.10;;;;;;;8.94;100.00;149709.47;5050386;28;20021;-72
2023/02/03 06:51:48;;;;;;;11.30;3.17;;;;;;;8.94;100.00;149709.47;5032495;28;20025;-72
2023/02/03 06:54:14;;;;;;;6.17;2.50;;;;;;;8.94;100.00;149709.47;5047968;28;20384;-71
2023/02/03 06:56:39;;;;;;;7.40;2.13;;;;;;;;;;5049588;28;20534;-70
2023/02/03 06:59:06;;;;;;;9.63;3.20;;;;;;;-145.18;100.00;60484.78;5040695;28;20021;-72
2023/02/03 07:01:31;;;;;;;4.60;2.17;;;;;;;8.94;100.00;149709.47;5041872;28;20032;-72
2023/02/03 07:03:57;;;;;;;8.23;3.00;;;;;;;8.94;100.00;149709.47;5048832;28;20035;-72
2023/02/03 07:06:28;;;;;;;6.50;2.50;;;;;;;8.94;100.00;149709.47;5049770;28;20036;-71
2023/02/03 07:08:56;;;;;;;15.17;3.17;;;;;;;8.94;100.00;149709.47;5049387;28;20033;-71
2023/02/03 07:11:22;;;;;;;10.33;3.93;;;;;;;8.94;100.00;149709.47;5050401;28;20033;-71
2023/02/03 07:13:48;;;;;;;6.10;2.00;;;;;;;8.94;100.00;149709.47;5050840;28;20029;-70
2023/02/03 07:16:13;;;;;;;9.80;2.50;;;;;;;8.94;100.00;149709.47;5047876;28;20025;-72
2023/02/03 07:18:39;;;;;;;7.63;2.97;;;;;;;8.94;100.00;149709.47;5047342;28;20025;-72
2023/02/03 07:21:05;;;;;;;6.67;2.80;;;;;;;8.94;100.00;149709.47;5044961;28;20036;-72
2023/02/03 07:23:31;;;;;;;7.23;2.43;;;;;;;-145.18;100.00;114074.00;5042100;28;20051;-72
2023/02/03 07:26:04;;;;;;;7.77;2.37;;;;;;;-145.18;100.00;60484.78;5051441;28;20025;-71
2023/02/03 07:28:31;;;;;;;9.53;2.83;;;;;;;-145.18;100.00;60484.78;5052118;28;20028;-72
2023/02/03 07:30:56;;;;;;;10.03;2.37;;;;;;;-145.18;100.00;60484.78;5051429;28;20021;-72
2023/02/03 07:33:22;;;;;;;5.60;2.03;;;;;;;-145.18;100.00;60484.78;5051249;28;20381;-72
2023/02/03 07:35:55;;;;;;;5.93;2.33;;;;;;;8.94;100.00;60484.78;5050906;28;20085;-71
2023/02/03 07:38:20;;;;;;;12.93;3.03;;;;;;;-145.18;100.00;60484.78;5051593;28;20032;-72
2023/02/03 07:40:46;;;;;;;6.53;2.27;;;;;;;-145.18;100.00;60484.78;5050029;28;20025;-71
2023/02/03 07:43:11;;;;;;;11.67;3.13;;;;;;;-145.18;100.00;60484.78;5052396;28;20021;-71
2023/02/03 07:45:37;;;;;;;7.13;2.40;;;;;;;-145.18;100.00;60484.78;5051371;28;20107;-72
2023/02/03 07:48:02;;;;;;;10.90;2.90;;;;;;;-145.18;100.00;60484.78;5051271;28;20037;-70
2023/02/03 07:50:27;;;;;;;9.90;2.90;;;;;;;-145.18;100.00;60484.78;5050103;28;20028;-70
2023/02/03 07:52:54;;;;;;;12.10;3.40;;;;;;;-145.18;100.00;60484.78;5051216;28;20029;-72
2023/02/03 07:55:20;;;;;;;11.80;3.30;;;;;;;-145.18;100.00;60484.78;5041815;28;20033;-71
2023/02/03 07:57:46;;;;;;;10.13;3.27;;;;;;;-145.18;100.00;60484.78;5050588;28;20059;-71
2023/02/03 08:00:13;;;;;;;9.87;2.83;;;;;;;-145.18;100.00;60484.78;5050057;28;20443;-72
2023/02/03 08:02:39;;;;;;;7.33;2.80;;;;;;;-145.18;100.00;60484.78;5048953;28;20028;-71
2023/02/03 08:05:05;;;;;;;5.33;2.23;;;;;;;-145.18;100.00;60484.78;5046734;28;20025;-71
2023/02/03 08:07:31;;;;;;;8.37;1.97;;;;;;;-145.18;100.00;60484.78;5055860;28;20035;-71
2023/02/03 08:09:56;;;;;;;9.30;2.70;;;;;;;-145.18;100.00;60484.78;5051390;28;20031;-72
2023/02/03 08:12:21;;;;;;;5.43;1.87;;;;;;;-145.18;100.00;60484.78;5050162;28;20104;-71
2023/02/03 08:14:47;;;;;;;8.57;2.53;;;;;;;-145.18;100.00;60484.78;5051855;28;20020;-71
2023/02/03 08:17:12;;;;;;;7.37;1.93;;;;;;;-145.18;100.00;60484.78;5050713;28;20028;-72
2023/02/03 08:19:38;;;;;;;9.53;2.57;;;;;;;-145.18;100.00;60484.78;5049354;28;20086;-73
2023/02/03 08:22:03;;;;;;;8.97;2.30;;;;;;;-145.18;100.00;60484.78;5050207;28;20021;-72
2023/02/03 08:24:29;;;;;;;7.47;2.80;;;;;;;-145.18;100.00;60484.78;5050855;28;20468;-71
2023/02/03 08:26:54;;;;;;;8.47;2.87;;;;;;;-145.18;100.00;60484.78;5051104;28;20467;-72
2023/02/03 08:29:19;;;;;;;13.17;2.13;;;;;;;-145.18;100.00;60484.78;5049572;28;20033;-71
2023/02/03 08:31:45;;;;;;;12.13;2.93;;;;;;;-145.18;100.00;60484.78;5050252;28;20027;-72
2023/02/03 08:34:10;;;;;;;9.03;2.23;;;;;;;-145.18;100.00;60484.78;5046460;28;20427;-72
2023/02/03 08:36:38;;;;;;;10.30;2.57;;;;;;;-145.18;100.00;60484.78;5050210;28;20525;-72
2023/02/03 08:39:04;;;;;;;11.27;2.57;;;;;;;-145.18;100.00;60484.78;5051782;28;20480;-72
2023/02/03 08:41:30;;;;;;;8.60;2.17;;;;;;;-145.18;100.00;60484.78;5049695;28;20074;-71
2023/02/03 08:43:55;;;;;;;7.80;2.23;;;;;;;-145.18;100.00;60484.78;5050958;28;20029;-71
2023/02/03 08:46:21;;;;;;;9.20;2.17;;;;;;;-145.18;100.00;60484.78;5049601;28;20056;-70
2023/02/03 08:48:46;;;;;;;9.17;2.23;;;;;;;-145.18;100.00;60484.78;5049339;28;20021;-71
2023/02/03 08:51:14;;;;;;;6.17;1.63;;;;;;;-145.18;100.00;60484.78;5051114;28;20029;-72
2023/02/03 08:53:39;;;;;;;12.43;2.67;;;;;;;-145.18;100.00;60484.78;5047801;28;20491;-72
2023/02/03 08:56:10;;;;;;;6.07;1.70;;;;;;;-145.18;100.00;60484.78;5050531;28;20029;-71
2023/02/03 08:58:36;;;;;;;13.13;2.80;;;;;;;-145.18;100.00;60484.78;5050169;28;20017;-72
2023/02/03 09:01:10;;;;;;;14.67;2.70;;;;;;;-145.18;100.00;60484.78;5047261;28;20029;-72
2023/02/03 09:03:37;;;;;;;11.50;2.60;;;;;;;-145.18;100.00;60484.78;5049768;28;20028;-72
2023/02/03 09:06:03;;;;;;;9.13;1.90;;;;;;;-145.18;100.00;60484.78;5050135;28;20122;-72
2023/02/03 09:08:29;;;;;;;16.90;2.70;;;;;;;-145.18;100.00;60484.78;5049458;28;20098;-72
2023/02/03 09:10:54;;;;;;;11.27;1.90;;;;;;;-145.18;100.00;60484.78;5050948;28;20470;-71
2023/02/03 09:13:20;;;;;;;12.60;1.87;;;;;;;-145.18;100.00;60484.78;5051797;28;20052;-73
2023/02/03 09:15:45;;;;;;;8.60;2.37;;;;;;;-145.18;100.00;60484.78;5051233;28;20075;-72
2023/02/03 09:18:11;;;;;;;8.33;2.00;;;;;;;-145.18;100.00;60484.78;5052593;28;20029;-73
2023/02/03 09:20:36;;;;;;;11.50;1.90;;;;;;;-145.18;100.00;60484.78;5052100;28;20025;-72
2023/02/03 09:23:01;;;;;;;8.83;2.13;;;;;;;-145.18;100.00;60484.78;5053573;28;20438;-72
2023/02/03 09:25:27;;;;;;;6.73;2.10;;;;;;;-145.18;100.00;60484.78;5054466;28;20020;-71
2023/02/03 09:27:52;;;;;;;11.70;2.20;;;;;;;-145.18;100.00;60484.78;5053976;28;20029;-71
2023/02/03 09:30:18;;;;;;;10.30;2.30;;;;;;;-145.18;100.00;60484.78;5054394;28;20104;-72
2023/02/03 09:32:47;;;;;;;6.40;2.07;;;;;;;-145.18;100.00;60484.78;5054202;28;20402;-72
2023/02/03 09:35:13;;;;;;;15.00;1.80;;;;;;;-145.18;100.00;60484.78;5054502;28;20060;-70
2023/02/03 09:37:38;;;;;;;13.80;2.00;;;;;;;-145.18;100.00;60484.78;5054053;28;20494;-71
2023/02/03 09:40:05;;;;;;;13.27;2.77;;;;;;;-145.18;100.00;60484.78;5053692;28;20024;-72
2023/02/03 09:42:49;;;;;;;12.43;2.77;;;;;;;-145.18;100.00;60484.78;5054262;28;20040;-72
2023/02/03 09:45:27;;;;;;;12.00;2.37;;;;;;;-145.18;100.00;60484.78;5054564;28;20035;-72
2023/02/03 09:48:05;;;;;;;15.60;3.07;;;;;;;-145.18;100.00;60484.78;5053773;28;20037;-72
2023/02/03 09:50:33;;;;;;;12.67;2.33;;;;;;;-145.18;100.00;60484.78;5052530;28;20029;-72
2023/02/03 09:53:04;;;;;;;16.93;3.87;;;;;;;-145.18;100.00;60484.78;5051106;28;20029;-72
2023/02/03 09:55:37;;;;;;;14.25;3.33;;;;;;;-145.18;100.00;60484.78;5050417;28;20029;-72
2023/02/03 09:58:11;;;;;;;16.83;3.17;;;;;;;-145.18;100.00;60484.78;5054004;28;20380;-72
2023/02/03 10:01:01;;;;;;;27.10;3.73;;;;;;;-145.18;100.00;60484.78;5054385;28;20111;-72
2023/02/03 10:03:26;;;;;;;23.43;4.00;;;;;;;-145.18;100.00;60484.78;5054898;28;20434;-71
2023/02/03 10:05:54;;;;;;;12.80;2.93;;;;;;;-145.18;100.00;60484.78;5050779;28;20115;-71
2023/02/03 10:08:42;;;;;;;12.47;2.63;;;;;;;-145.18;100.00;60484.78;5054404;28;20472;-71
2023/02/03 10:11:22;;;;;;;18.17;3.57;;;;;;;-145.18;100.00;60484.78;5054226;28;20041;-72
2023/02/03 10:14:15;;;;;;;13.17;3.10;;;;;;;-145.18;100.00;60484.78;5053460;28;20464;-71
2023/02/03 10:17:08;;;;;;;15.57;2.93;;;;;;;-145.18;100.00;60484.78;5054577;28;20369;-71
2023/02/03 10:19:45;;;;;;;21.50;3.07;;;;;;;-145.18;100.00;60484.78;5053384;28;20044;-70
2023/02/03 10:22:18;;;;;;;19.33;3.10;;;;;;;-145.18;100.00;60484.78;5053394;28;20044;-71
2023/02/03 10:25:02;;;;;;;12.67;2.83;;;;;;;-145.18;100.00;60484.78;5053891;28;20068;-71
2023/02/03 10:27:28;;;;;;;17.77;3.03;;;;;;;-145.18;100.00;60484.78;5053518;28;20448;-71
2023/02/03 10:29:57;;;;;;;18.20;2.73;;;;;;;-145.18;100.00;60484.78;5053189;28;20388;-71
2023/02/03 10:32:25;;;;;;;20.80;3.37;;;;;;;-145.18;100.00;60484.78;5053878;28;20035;-70
2023/02/03 10:34:50;;;;;;;15.73;3.00;;;;;;;-145.18;100.00;60484.78;5053387;28;20029;-71
2023/02/03 10:37:16;;;;;;;15.13;2.80;;;;;;;-145.18;100.00;60484.78;5049020;28;20497;-71
2023/02/03 10:39:50;;;;;;;20.03;3.73;;;;;;;-145.18;100.00;60484.78;5053713;28;20416;-74
2023/02/03 10:42:16;;;;;;;18.87;2.57;;;;;;;-145.18;100.00;60484.78;5052815;28;20039;-71
2023/02/03 10:44:47;;;;;;;12.83;2.20;;;;;;;-145.18;100.00;60484.78;5052926;28;20581;-71
2023/02/03 10:47:34;;;;;;;16.03;3.63;;;;;;;-145.18;100.00;60484.78;5053000;28;20448;-71
2023/02/03 10:50:07;;;;;;;17.37;2.90;;;;;;;-145.18;100.00;60484.78;5052802;28;20129;-71
2023/02/03 10:52:34;;;;;;;23.53;3.77;;;;;;;-145.18;100.00;60484.78;5051665;28;20162;-71
2023/02/03 10:55:25;;;;;;;20.67;2.73;;;;;;;-145.18;100.00;60484.78;5052491;28;20043;-71
2023/02/03 10:57:55;;;;;;;11.38;2.17;;;;;;;-145.18;100.00;60484.78;5041321;28;20129;-71
2023/02/03 11:00:22;;;;;;;17.77;3.40;;;;;;;-145.18;100.00;60484.78;5034707;28;20432;-71
2023/02/03 11:02:57;;;;;;;21.67;3.43;;;;;;;-145.18;100.00;60484.78;5051893;28;20489;-72
2023/02/03 11:05:26;;;;;;;22.37;3.20;;;;;;;-145.18;100.00;60484.78;5051734;28;20033;-71
2023/02/03 11:07:52;;;;;;;32.23;3.67;;;;;;;-145.18;100.00;60484.78;5052959;28;20033;-72
2023/02/03 11:10:28;;;;;;;18.20;3.10;;;;;;;-145.18;100.00;60484.78;5050380;28;20384;-71
2023/02/03 11:13:18;;;;;;;17.47;2.93;;;;;;;-145.18;100.00;60484.78;5032859;28;20040;-71
2023/02/03 11:16:12;;;;;;;18.57;3.53;;;;;;;-145.18;100.00;60484.78;5033339;28;20038;-71
2023/02/03 11:18:57;;;;;;;22.23;3.80;;;;;;;-145.18;100.00;60484.78;5044421;28;20086;-71
2023/02/03 11:21:32;;;;;;;15.93;2.57;;;;;;;-145.18;100.00;60484.78;5049344;28;20111;-71
2023/02/03 11:24:05;;;;;;;26.70;2.97;;;;;;;-145.18;100.00;60484.78;5051230;28;20499;-71
2023/02/03 11:26:44;;;;;;;23.83;4.20;;;;;;;-145.18;100.00;60484.78;5050695;28;20033;-72